sensor_id;sensor_type;location;lat;lon;timestamp;temperature;humidity
10051;DHT22;5065;46.942;7.432;2023-08-12T00:01:22;24.20;99.90
10051;DHT22;5065;46.942;7.432;2023-08-12T00:03:50;24.20;99.90
10051;DHT22;5065;46.942;7.432;2023-08-12T00:06:17;24.20;99.90
10051;DHT22;5065;46.942;7.432;2023-08-12T00:08:45;24.20;99.90
10051;DHT22;5065;46.942;7.432;2023-08-12T00:11:12;24.10;99.90
10051;DHT22;5065;46.942;7.432;2023-08-12T00:13:40;24.10;99.90
10051;DHT22;5065;46.942;7.432;2023-08-12T00:16:08;24.10;99.90
10051;DHT22;5065;46.942;7.432;2023-08-12T00:18:35;24.20;99.90
10051;DHT22;5065;46.942;7.432;2023-08-12T00:21:06;24.10;99.90
10051;DHT22;5065;46.942;7.432;2023-08-12T00:23:39;24.10;99.90
10051;DHT22;5065;46.942;7.432;2023-08-12T00:26:06;24.00;99.90
10051;DHT22;5065;46.942;7.432;2023-08-12T00:28:33;24.00;99.90
10051;DHT22;5065;46.942;7.432;2023-08-12T00:31:02;23.90;99.90
10051;DHT22;5065;46.942;7.432;2023-08-12T00:33:30;23.80;99.90
10051;DHT22;5065;46.942;7.432;2023-08-12T00:35:57;23.80;99.90
10051;DHT22;5065;46.942;7.432;2023-08-12T00:38:24;23.80;99.90
10051;DHT22;5065;46.942;7.432;2023-08-12T00:40:51;23.70;99.90
10051;DHT22;5065;46.942;7.432;2023-08-12T00:43:18;23.70;99.90
10051;DHT22;5065;46.942;7.432;2023-08-12T00:45:45;23.70;99.90
10051;DHT22;5065;46.942;7.432;2023-08-12T00:48:15;23.70;99.90
10051;DHT22;5065;46.942;7.432;2023-08-12T00:50:44;23.70;99.90
10051;DHT22;5065;46.942;7.432;2023-08-12T00:53:12;23.70;99.90
10051;DHT22;5065;46.942;7.432;2023-08-12T00:55:40;23.70;99.90
10051;DHT22;5065;46.942;7.432;2023-08-12T00:58:08;23.60;99.90
10051;DHT22;5065;46.942;7.432;2023-08-12T01:00:35;23.60;99.90
10051;DHT22;5065;46.942;7.432;2023-08-12T01:03:03;23.70;99.90
10051;DHT22;5065;46.942;7.432;2023-08-12T01:05:34;23.60;99.90
10051;DHT22;5065;46.942;7.432;2023-08-12T01:08:01;23.60;99.90
10051;DHT22;5065;46.942;7.432;2023-08-12T01:10:34;23.50;99.90
10051;DHT22;5065;46.942;7.432;2023-08-12T01:13:15;23.50;99.90
10051;DHT22;5065;46.942;7.432;2023-08-12T01:15:44;23.40;99.90
10051;DHT22;5065;46.942;7.432;2023-08-12T01:18:12;23.30;99.90
10051;DHT22;5065;46.942;7.432;2023-08-12T01:20:42;23.20;99.90
10051;DHT22;5065;46.942;7.432;2023-08-12T01:23:12;23.20;99.90
10051;DHT22;5065;46.942;7.432;2023-08-12T01:25:40;23.20;99.90
10051;DHT22;5065;46.942;7.432;2023-08-12T01:28:08;23.10;99.90
10051;DHT22;5065;46.942;7.432;2023-08-12T01:30:39;23.10;99.90
10051;DHT22;5065;46.942;7.432;2023-08-12T01:33:11;23.00;99.90
10051;DHT22;5065;46.942;7.432;2023-08-12T01:35:45;23.00;99.90
10051;DHT22;5065;46.942;7.432;2023-08-12T01:38:16;23.00;99.90
10051;DHT22;5065;46.942;7.432;2023-08-12T01:40:45;23.00;99.90
10051;DHT22;5065;46.942;7.432;2023-08-12T01:43:12;23.00;99.90
10051;DHT22;5065;46.942;7.432;2023-08-12T01:45:41;23.00;99.90
10051;DHT22;5065;46.942;7.432;2023-08-12T01:48:09;23.10;99.90
10051;DHT22;5065;46.942;7.432;2023-08-12T01:50:36;23.10;99.90
10051;DHT22;5065;46.942;7.432;2023-08-12T01:53:04;23.10;99.90
10051;DHT22;5065;46.942;7.432;2023-08-12T01:55:32;23.10;99.90
10051;DHT22;5065;46.942;7.432;2023-08-12T01:57:59;23.10;99.90
10051;DHT22;5065;46.942;7.432;2023-08-12T02:00:27;23.10;99.90
10051;DHT22;5065;46.942;7.432;2023-08-12T02:02:54;23.10;99.90
10051;DHT22;5065;46.942;7.432;2023-08-12T02:05:21;23.10;99.90
10051;DHT22;5065;46.942;7.432;2023-08-12T02:07:48;23.10;99.90
10051;DHT22;5065;46.942;7.432;2023-08-12T02:10:15;23.00;99.90
10051;DHT22;5065;46.942;7.432;2023-08-12T02:12:44;23.00;99.90
10051;DHT22;5065;46.942;7.432;2023-08-12T02:15:11;23.00;99.90
10051;DHT22;5065;46.942;7.432;2023-08-12T02:17:38;23.00;99.90
10051;DHT22;5065;46.942;7.432;2023-08-12T02:20:07;23.00;99.90
10051;DHT22;5065;46.942;7.432;2023-08-12T02:22:34;22.90;99.90
10051;DHT22;5065;46.942;7.432;2023-08-12T02:25:01;22.90;99.90
10051;DHT22;5065;46.942;7.432;2023-08-12T02:27:29;22.90;99.90
10051;DHT22;5065;46.942;7.432;2023-08-12T02:29:57;23.00;99.90
10051;DHT22;5065;46.942;7.432;2023-08-12T02:32:24;23.00;99.90
10051;DHT22;5065;46.942;7.432;2023-08-12T02:34:52;23.10;99.90
10051;DHT22;5065;46.942;7.432;2023-08-12T02:37:22;23.10;99.90
10051;DHT22;5065;46.942;7.432;2023-08-12T02:39:49;23.20;99.90
10051;DHT22;5065;46.942;7.432;2023-08-12T02:42:16;23.20;99.90
10051;DHT22;5065;46.942;7.432;2023-08-12T02:44:43;23.10;99.90
10051;DHT22;5065;46.942;7.432;2023-08-12T02:47:12;23.10;99.90
10051;DHT22;5065;46.942;7.432;2023-08-12T02:49:39;23.10;99.90
10051;DHT22;5065;46.942;7.432;2023-08-12T02:52:09;23.20;99.90
10051;DHT22;5065;46.942;7.432;2023-08-12T02:54:36;23.20;99.90
10051;DHT22;5065;46.942;7.432;2023-08-12T02:57:04;23.20;99.90
10051;DHT22;5065;46.942;7.432;2023-08-12T02:59:31;23.20;99.90
10051;DHT22;5065;46.942;7.432;2023-08-12T03:01:58;23.20;99.90
10051;DHT22;5065;46.942;7.432;2023-08-12T03:04:26;23.20;99.90
10051;DHT22;5065;46.942;7.432;2023-08-12T03:06:53;23.20;99.90
10051;DHT22;5065;46.942;7.432;2023-08-12T03:09:21;23.20;99.90
10051;DHT22;5065;46.942;7.432;2023-08-12T03:11:48;23.20;99.90
10051;DHT22;5065;46.942;7.432;2023-08-12T03:14:15;23.20;99.90
10051;DHT22;5065;46.942;7.432;2023-08-12T03:16:42;23.20;99.90
10051;DHT22;5065;46.942;7.432;2023-08-12T03:19:09;23.10;99.90
10051;DHT22;5065;46.942;7.432;2023-08-12T03:21:38;23.10;99.90
10051;DHT22;5065;46.942;7.432;2023-08-12T03:24:06;23.10;99.90
10051;DHT22;5065;46.942;7.432;2023-08-12T03:26:33;23.10;99.90
10051;DHT22;5065;46.942;7.432;2023-08-12T03:29:00;23.00;99.90
10051;DHT22;5065;46.942;7.432;2023-08-12T03:31:27;23.00;99.90
10051;DHT22;5065;46.942;7.432;2023-08-12T03:33:54;23.00;99.90
10051;DHT22;5065;46.942;7.432;2023-08-12T03:36:21;23.00;99.90
10051;DHT22;5065;46.942;7.432;2023-08-12T03:38:53;23.00;99.90
10051;DHT22;5065;46.942;7.432;2023-08-12T03:41:20;23.00;99.90
10051;DHT22;5065;46.942;7.432;2023-08-12T03:43:50;23.00;99.90
10051;DHT22;5065;46.942;7.432;2023-08-12T03:46:17;23.00;99.90
10051;DHT22;5065;46.942;7.432;2023-08-12T03:48:45;23.00;99.90
10051;DHT22;5065;46.942;7.432;2023-08-12T03:51:12;22.90;99.90
10051;DHT22;5065;46.942;7.432;2023-08-12T03:53:39;22.80;99.90
10051;DHT22;5065;46.942;7.432;2023-08-12T03:56:08;22.80;99.90
10051;DHT22;5065;46.942;7.432;2023-08-12T03:58:35;22.70;99.90
10051;DHT22;5065;46.942;7.432;2023-08-12T04:01:02;22.70;99.90
10051;DHT22;5065;46.942;7.432;2023-08-12T04:03:29;22.70;99.90
10051;DHT22;5065;46.942;7.432;2023-08-12T04:05:57;22.70;99.90
10051;DHT22;5065;46.942;7.432;2023-08-12T04:08:24;22.70;99.90
10051;DHT22;5065;46.942;7.432;2023-08-12T04:10:52;22.80;99.90
10051;DHT22;5065;46.942;7.432;2023-08-12T04:13:20;22.70;99.90
10051;DHT22;5065;46.942;7.432;2023-08-12T04:15:49;22.80;99.90
10051;DHT22;5065;46.942;7.432;2023-08-12T04:18:16;22.80;99.90
10051;DHT22;5065;46.942;7.432;2023-08-12T04:20:45;22.70;99.90
10051;DHT22;5065;46.942;7.432;2023-08-12T04:23:12;22.70;99.90
10051;DHT22;5065;46.942;7.432;2023-08-12T04:25:39;22.70;99.90
10051;DHT22;5065;46.942;7.432;2023-08-12T04:28:07;22.70;99.90
10051;DHT22;5065;46.942;7.432;2023-08-12T04:30:35;22.70;99.90
10051;DHT22;5065;46.942;7.432;2023-08-12T04:33:03;22.70;99.90
10051;DHT22;5065;46.942;7.432;2023-08-12T04:35:31;22.80;99.90
10051;DHT22;5065;46.942;7.432;2023-08-12T04:37:58;22.70;99.90
10051;DHT22;5065;46.942;7.432;2023-08-12T04:40:26;22.70;99.90
10051;DHT22;5065;46.942;7.432;2023-08-12T04:42:53;22.70;99.90
10051;DHT22;5065;46.942;7.432;2023-08-12T04:45:22;22.70;99.90
10051;DHT22;5065;46.942;7.432;2023-08-12T04:47:53;22.70;99.90
10051;DHT22;5065;46.942;7.432;2023-08-12T04:50:20;22.70;99.90
10051;DHT22;5065;46.942;7.432;2023-08-12T04:52:47;22.80;99.90
10051;DHT22;5065;46.942;7.432;2023-08-12T04:55:15;22.80;99.90
10051;DHT22;5065;46.942;7.432;2023-08-12T04:57:44;22.70;99.90
10051;DHT22;5065;46.942;7.432;2023-08-12T05:00:12;22.80;99.90
10051;DHT22;5065;46.942;7.432;2023-08-12T05:02:39;22.80;99.90
10051;DHT22;5065;46.942;7.432;2023-08-12T05:05:08;22.80;99.90
10051;DHT22;5065;46.942;7.432;2023-08-12T05:07:38;22.80;99.90
10051;DHT22;5065;46.942;7.432;2023-08-12T05:10:06;22.80;99.90
10051;DHT22;5065;46.942;7.432;2023-08-12T05:12:44;22.80;99.90
10051;DHT22;5065;46.942;7.432;2023-08-12T05:15:20;22.80;99.90
10051;DHT22;5065;46.942;7.432;2023-08-12T05:17:48;22.80;99.90
10051;DHT22;5065;46.942;7.432;2023-08-12T05:20:16;22.70;99.90
10051;DHT22;5065;46.942;7.432;2023-08-12T05:22:43;22.70;99.90
10051;DHT22;5065;46.942;7.432;2023-08-12T05:25:11;22.70;99.90
10051;DHT22;5065;46.942;7.432;2023-08-12T05:27:38;22.70;99.90
10051;DHT22;5065;46.942;7.432;2023-08-12T05:30:06;22.60;99.90
10051;DHT22;5065;46.942;7.432;2023-08-12T05:32:33;22.60;99.90
10051;DHT22;5065;46.942;7.432;2023-08-12T05:35:01;22.60;99.90
10051;DHT22;5065;46.942;7.432;2023-08-12T05:37:29;22.60;99.90
10051;DHT22;5065;46.942;7.432;2023-08-12T05:39:56;22.60;99.90
10051;DHT22;5065;46.942;7.432;2023-08-12T05:42:24;22.60;99.90
10051;DHT22;5065;46.942;7.432;2023-08-12T05:44:51;22.60;99.90
10051;DHT22;5065;46.942;7.432;2023-08-12T05:47:18;22.60;99.90
10051;DHT22;5065;46.942;7.432;2023-08-12T05:49:45;22.70;99.90
10051;DHT22;5065;46.942;7.432;2023-08-12T05:52:12;22.70;99.90
10051;DHT22;5065;46.942;7.432;2023-08-12T05:54:41;22.70;99.90
10051;DHT22;5065;46.942;7.432;2023-08-12T05:57:08;22.70;99.90
10051;DHT22;5065;46.942;7.432;2023-08-12T05:59:35;22.70;99.90
10051;DHT22;5065;46.942;7.432;2023-08-12T06:02:02;22.70;99.90
10051;DHT22;5065;46.942;7.432;2023-08-12T06:04:30;22.80;99.90
10051;DHT22;5065;46.942;7.432;2023-08-12T06:06:57;22.80;99.90
10051;DHT22;5065;46.942;7.432;2023-08-12T06:09:24;22.80;99.90
10051;DHT22;5065;46.942;7.432;2023-08-12T06:11:53;22.80;99.90
10051;DHT22;5065;46.942;7.432;2023-08-12T06:14:20;23.00;99.90
10051;DHT22;5065;46.942;7.432;2023-08-12T06:16:47;23.20;99.90
10051;DHT22;5065;46.942;7.432;2023-08-12T06:19:14;23.60;99.90
10051;DHT22;5065;46.942;7.432;2023-08-12T06:21:41;23.80;99.90
10051;DHT22;5065;46.942;7.432;2023-08-12T06:24:09;23.90;99.90
10051;DHT22;5065;46.942;7.432;2023-08-12T06:26:36;24.00;99.90
10051;DHT22;5065;46.942;7.432;2023-08-12T06:29:04;24.00;99.90
10051;DHT22;5065;46.942;7.432;2023-08-12T06:31:31;24.00;99.90
10051;DHT22;5065;46.942;7.432;2023-08-12T06:33:59;23.90;99.90
10051;DHT22;5065;46.942;7.432;2023-08-12T06:36:26;23.90;99.90
10051;DHT22;5065;46.942;7.432;2023-08-12T06:38:53;23.80;99.90
10051;DHT22;5065;46.942;7.432;2023-08-12T06:41:20;23.60;99.90
10051;DHT22;5065;46.942;7.432;2023-08-12T06:43:48;23.60;99.90
10051;DHT22;5065;46.942;7.432;2023-08-12T06:46:16;23.50;99.90
10051;DHT22;5065;46.942;7.432;2023-08-12T06:48:43;23.50;99.90
10051;DHT22;5065;46.942;7.432;2023-08-12T06:51:10;23.50;99.90
10051;DHT22;5065;46.942;7.432;2023-08-12T06:53:38;23.60;99.90
10051;DHT22;5065;46.942;7.432;2023-08-12T06:56:06;23.70;99.90
10051;DHT22;5065;46.942;7.432;2023-08-12T06:58:35;23.80;99.90
10051;DHT22;5065;46.942;7.432;2023-08-12T07:01:02;23.80;99.90
10051;DHT22;5065;46.942;7.432;2023-08-12T07:03:31;23.70;99.90
10051;DHT22;5065;46.942;7.432;2023-08-12T07:05:59;23.70;99.90
10051;DHT22;5065;46.942;7.432;2023-08-12T07:08:26;23.80;99.90
10051;DHT22;5065;46.942;7.432;2023-08-12T07:10:54;23.80;99.90
10051;DHT22;5065;46.942;7.432;2023-08-12T07:13:21;23.80;99.90
10051;DHT22;5065;46.942;7.432;2023-08-12T07:15:48;23.80;99.90
10051;DHT22;5065;46.942;7.432;2023-08-12T07:18:15;23.90;99.90
10051;DHT22;5065;46.942;7.432;2023-08-12T07:20:44;24.00;99.90
10051;DHT22;5065;46.942;7.432;2023-08-12T07:23:11;24.00;99.90
10051;DHT22;5065;46.942;7.432;2023-08-12T07:25:38;24.00;99.90
10051;DHT22;5065;46.942;7.432;2023-08-12T07:28:06;24.00;99.90
10051;DHT22;5065;46.942;7.432;2023-08-12T07:30:34;24.00;99.90
10051;DHT22;5065;46.942;7.432;2023-08-12T07:33:02;24.10;99.90
10051;DHT22;5065;46.942;7.432;2023-08-12T07:35:29;24.20;99.90
10051;DHT22;5065;46.942;7.432;2023-08-12T07:37:58;24.30;99.90
10051;DHT22;5065;46.942;7.432;2023-08-12T07:40:25;24.40;99.90
10051;DHT22;5065;46.942;7.432;2023-08-12T07:42:52;24.50;99.90
10051;DHT22;5065;46.942;7.432;2023-08-12T07:45:19;24.50;99.90
10051;DHT22;5065;46.942;7.432;2023-08-12T07:47:46;24.60;99.90
10051;DHT22;5065;46.942;7.432;2023-08-12T07:50:14;24.80;99.90
10051;DHT22;5065;46.942;7.432;2023-08-12T07:52:41;25.00;99.90
10051;DHT22;5065;46.942;7.432;2023-08-12T07:55:09;25.10;99.90
10051;DHT22;5065;46.942;7.432;2023-08-12T07:57:38;25.10;99.90
10051;DHT22;5065;46.942;7.432;2023-08-12T08:00:06;25.20;99.90
10051;DHT22;5065;46.942;7.432;2023-08-12T08:02:34;25.20;99.90
10051;DHT22;5065;46.942;7.432;2023-08-12T08:05:01;25.20;99.90
10051;DHT22;5065;46.942;7.432;2023-08-12T08:07:28;25.10;99.90
10051;DHT22;5065;46.942;7.432;2023-08-12T08:09:55;25.10;99.90
10051;DHT22;5065;46.942;7.432;2023-08-12T08:12:24;25.00;99.90
10051;DHT22;5065;46.942;7.432;2023-08-12T08:14:52;24.90;99.90
10051;DHT22;5065;46.942;7.432;2023-08-12T08:17:19;24.80;99.90
10051;DHT22;5065;46.942;7.432;2023-08-12T08:19:47;24.70;99.90
10051;DHT22;5065;46.942;7.432;2023-08-12T08:22:14;24.60;99.90
10051;DHT22;5065;46.942;7.432;2023-08-12T08:24:41;24.50;99.90
10051;DHT22;5065;46.942;7.432;2023-08-12T08:27:08;24.40;99.90
10051;DHT22;5065;46.942;7.432;2023-08-12T08:29:37;24.30;99.90
10051;DHT22;5065;46.942;7.432;2023-08-12T08:32:05;24.20;99.90
10051;DHT22;5065;46.942;7.432;2023-08-12T08:34:32;24.10;99.90
10051;DHT22;5065;46.942;7.432;2023-08-12T08:36:59;24.00;99.90
10051;DHT22;5065;46.942;7.432;2023-08-12T08:39:26;23.80;99.90
10051;DHT22;5065;46.942;7.432;2023-08-12T08:41:58;23.80;99.90
10051;DHT22;5065;46.942;7.432;2023-08-12T08:44:28;23.70;99.90
10051;DHT22;5065;46.942;7.432;2023-08-12T08:46:58;23.60;99.90
10051;DHT22;5065;46.942;7.432;2023-08-12T08:49:26;23.60;99.90
10051;DHT22;5065;46.942;7.432;2023-08-12T08:51:56;23.60;99.90
10051;DHT22;5065;46.942;7.432;2023-08-12T08:54:23;23.50;99.90
10051;DHT22;5065;46.942;7.432;2023-08-12T08:56:51;23.50;99.90
10051;DHT22;5065;46.942;7.432;2023-08-12T08:59:18;23.50;99.90
10051;DHT22;5065;46.942;7.432;2023-08-12T09:01:49;23.40;99.90
10051;DHT22;5065;46.942;7.432;2023-08-12T09:04:20;23.40;99.90
10051;DHT22;5065;46.942;7.432;2023-08-12T09:06:50;23.50;99.90
10051;DHT22;5065;46.942;7.432;2023-08-12T09:09:20;23.50;99.90
10051;DHT22;5065;46.942;7.432;2023-08-12T09:11:49;23.50;99.90
10051;DHT22;5065;46.942;7.432;2023-08-12T09:14:18;23.60;99.90
10051;DHT22;5065;46.942;7.432;2023-08-12T09:16:45;23.60;99.90
10051;DHT22;5065;46.942;7.432;2023-08-12T09:19:13;23.60;99.90
10051;DHT22;5065;46.942;7.432;2023-08-12T09:21:42;23.60;99.90
10051;DHT22;5065;46.942;7.432;2023-08-12T09:24:09;23.70;99.90
10051;DHT22;5065;46.942;7.432;2023-08-12T09:26:36;23.80;99.90
10051;DHT22;5065;46.942;7.432;2023-08-12T09:29:03;23.80;99.90
10051;DHT22;5065;46.942;7.432;2023-08-12T09:31:34;23.70;99.90
10051;DHT22;5065;46.942;7.432;2023-08-12T09:34:04;23.70;99.90
10051;DHT22;5065;46.942;7.432;2023-08-12T09:36:33;23.70;99.90
10051;DHT22;5065;46.942;7.432;2023-08-12T09:39:06;23.70;99.90
10051;DHT22;5065;46.942;7.432;2023-08-12T09:41:43;23.60;99.90
10051;DHT22;5065;46.942;7.432;2023-08-12T09:44:10;23.70;99.90
10051;DHT22;5065;46.942;7.432;2023-08-12T09:46:37;23.60;99.90
10051;DHT22;5065;46.942;7.432;2023-08-12T09:49:08;23.50;99.90
10051;DHT22;5065;46.942;7.432;2023-08-12T09:51:35;23.50;99.90
10051;DHT22;5065;46.942;7.432;2023-08-12T09:54:04;23.40;99.90
10051;DHT22;5065;46.942;7.432;2023-08-12T09:56:36;23.30;99.90
10051;DHT22;5065;46.942;7.432;2023-08-12T09:59:06;23.30;99.90
10051;DHT22;5065;46.942;7.432;2023-08-12T10:01:34;23.30;99.90
10051;DHT22;5065;46.942;7.432;2023-08-12T10:04:03;23.30;99.90
10051;DHT22;5065;46.942;7.432;2023-08-12T10:06:33;23.20;99.90
10051;DHT22;5065;46.942;7.432;2023-08-12T10:09:01;23.30;99.90
10051;DHT22;5065;46.942;7.432;2023-08-12T10:11:30;23.30;99.90
10051;DHT22;5065;46.942;7.432;2023-08-12T10:13:58;23.30;99.90
10051;DHT22;5065;46.942;7.432;2023-08-12T10:16:29;23.30;99.90
10051;DHT22;5065;46.942;7.432;2023-08-12T10:18:57;23.30;99.90
10051;DHT22;5065;46.942;7.432;2023-08-12T10:21:26;23.40;99.90
10051;DHT22;5065;46.942;7.432;2023-08-12T10:23:57;23.50;99.90
10051;DHT22;5065;46.942;7.432;2023-08-12T10:26:27;23.80;99.90
10051;DHT22;5065;46.942;7.432;2023-08-12T10:28:55;24.10;99.90
10051;DHT22;5065;46.942;7.432;2023-08-12T10:31:26;24.60;99.90
10051;DHT22;5065;46.942;7.432;2023-08-12T10:33:56;25.10;99.90
10051;DHT22;5065;46.942;7.432;2023-08-12T10:36:26;25.40;99.90
10051;DHT22;5065;46.942;7.432;2023-08-12T10:38:53;25.30;99.90
10051;DHT22;5065;46.942;7.432;2023-08-12T10:41:23;25.30;99.90
10051;DHT22;5065;46.942;7.432;2023-08-12T10:43:57;25.20;99.90
10051;DHT22;5065;46.942;7.432;2023-08-12T10:46:29;25.40;99.90
10051;DHT22;5065;46.942;7.432;2023-08-12T10:48:59;25.70;99.90
10051;DHT22;5065;46.942;7.432;2023-08-12T10:51:45;26.00;99.90
10051;DHT22;5065;46.942;7.432;2023-08-12T10:54:17;26.10;99.90
10051;DHT22;5065;46.942;7.432;2023-08-12T10:57:08;26.30;99.90
10051;DHT22;5065;46.942;7.432;2023-08-12T11:00:00;26.30;99.90
10051;DHT22;5065;46.942;7.432;2023-08-12T11:02:31;26.20;99.90
10051;DHT22;5065;46.942;7.432;2023-08-12T11:05:02;26.20;99.90
10051;DHT22;5065;46.942;7.432;2023-08-12T11:07:34;26.20;99.90
10051;DHT22;5065;46.942;7.432;2023-08-12T11:10:05;26.30;99.90
10051;DHT22;5065;46.942;7.432;2023-08-12T11:12:36;26.40;99.90
10051;DHT22;5065;46.942;7.432;2023-08-12T11:15:06;26.50;99.90
10051;DHT22;5065;46.942;7.432;2023-08-12T11:17:34;26.50;99.90
10051;DHT22;5065;46.942;7.432;2023-08-12T11:20:03;26.60;99.90
10051;DHT22;5065;46.942;7.432;2023-08-12T11:22:33;26.60;99.90
10051;DHT22;5065;46.942;7.432;2023-08-12T11:25:03;26.70;99.90
10051;DHT22;5065;46.942;7.432;2023-08-12T11:27:37;26.70;99.90
10051;DHT22;5065;46.942;7.432;2023-08-12T11:30:07;26.80;99.90
10051;DHT22;5065;46.942;7.432;2023-08-12T11:32:36;26.90;99.90
10051;DHT22;5065;46.942;7.432;2023-08-12T11:35:05;26.90;99.90
10051;DHT22;5065;46.942;7.432;2023-08-12T11:37:37;27.00;99.90
10051;DHT22;5065;46.942;7.432;2023-08-12T11:40:06;26.90;99.90
10051;DHT22;5065;46.942;7.432;2023-08-12T11:42:35;26.90;99.90
10051;DHT22;5065;46.942;7.432;2023-08-12T11:45:03;26.90;99.90
10051;DHT22;5065;46.942;7.432;2023-08-12T11:47:34;26.90;99.90
10051;DHT22;5065;46.942;7.432;2023-08-12T11:50:02;26.90;99.90
10051;DHT22;5065;46.942;7.432;2023-08-12T11:52:30;26.90;99.90
10051;DHT22;5065;46.942;7.432;2023-08-12T11:54:58;26.80;99.90
10051;DHT22;5065;46.942;7.432;2023-08-12T11:57:26;26.80;99.90
10051;DHT22;5065;46.942;7.432;2023-08-12T11:59:58;26.90;99.90
10051;DHT22;5065;46.942;7.432;2023-08-12T12:02:26;26.90;99.90
10051;DHT22;5065;46.942;7.432;2023-08-12T12:04:54;26.90;99.90
10051;DHT22;5065;46.942;7.432;2023-08-12T12:07:23;26.90;99.90
10051;DHT22;5065;46.942;7.432;2023-08-12T12:09:52;26.90;99.90
10051;DHT22;5065;46.942;7.432;2023-08-12T12:12:22;27.00;99.90
10051;DHT22;5065;46.942;7.432;2023-08-12T12:14:51;26.90;99.90
10051;DHT22;5065;46.942;7.432;2023-08-12T12:17:21;26.90;99.90
10051;DHT22;5065;46.942;7.432;2023-08-12T12:19:54;27.00;99.90
10051;DHT22;5065;46.942;7.432;2023-08-12T12:22:26;27.10;99.90
10051;DHT22;5065;46.942;7.432;2023-08-12T12:24:57;27.10;99.90
10051;DHT22;5065;46.942;7.432;2023-08-12T12:27:24;27.20;99.90
10051;DHT22;5065;46.942;7.432;2023-08-12T12:29:52;27.10;99.90
10051;DHT22;5065;46.942;7.432;2023-08-12T12:32:19;27.20;99.90
10051;DHT22;5065;46.942;7.432;2023-08-12T12:34:47;27.20;99.90
10051;DHT22;5065;46.942;7.432;2023-08-12T12:37:15;27.20;99.90
10051;DHT22;5065;46.942;7.432;2023-08-12T12:39:43;27.50;99.90
10051;DHT22;5065;46.942;7.432;2023-08-12T12:42:10;28.10;99.90
10051;DHT22;5065;46.942;7.432;2023-08-12T12:44:38;28.90;99.90
10051;DHT22;5065;46.942;7.432;2023-08-12T12:47:05;29.50;99.90
10051;DHT22;5065;46.942;7.432;2023-08-12T12:49:33;30.00;99.90
10051;DHT22;5065;46.942;7.432;2023-08-12T12:52:00;30.30;99.90
10051;DHT22;5065;46.942;7.432;2023-08-12T12:54:29;30.50;99.90
10051;DHT22;5065;46.942;7.432;2023-08-12T12:56:56;30.80;99.90
10051;DHT22;5065;46.942;7.432;2023-08-12T12:59:23;30.90;99.90
10051;DHT22;5065;46.942;7.432;2023-08-12T13:01:51;31.00;99.90
10051;DHT22;5065;46.942;7.432;2023-08-12T13:04:18;31.10;99.90
10051;DHT22;5065;46.942;7.432;2023-08-12T13:06:45;31.20;99.90
10051;DHT22;5065;46.942;7.432;2023-08-12T13:09:13;31.10;99.90
10051;DHT22;5065;46.942;7.432;2023-08-12T13:11:41;31.10;99.90
10051;DHT22;5065;46.942;7.432;2023-08-12T13:14:08;31.20;99.90
10051;DHT22;5065;46.942;7.432;2023-08-12T13:16:36;31.20;99.90
10051;DHT22;5065;46.942;7.432;2023-08-12T13:19:03;31.30;99.90
10051;DHT22;5065;46.942;7.432;2023-08-12T13:21:30;31.30;99.90
10051;DHT22;5065;46.942;7.432;2023-08-12T13:23:58;31.20;99.90
10051;DHT22;5065;46.942;7.432;2023-08-12T13:26:28;31.10;99.90
10051;DHT22;5065;46.942;7.432;2023-08-12T13:28:56;31.10;99.90
10051;DHT22;5065;46.942;7.432;2023-08-12T13:31:24;31.10;99.90
10051;DHT22;5065;46.942;7.432;2023-08-12T13:33:51;31.00;99.90
10051;DHT22;5065;46.942;7.432;2023-08-12T13:36:18;30.90;99.90
10051;DHT22;5065;46.942;7.432;2023-08-12T13:38:45;30.70;99.90
10051;DHT22;5065;46.942;7.432;2023-08-12T13:41:12;30.60;99.90
10051;DHT22;5065;46.942;7.432;2023-08-12T13:43:40;30.60;99.90
10051;DHT22;5065;46.942;7.432;2023-08-12T13:46:08;30.50;99.90
10051;DHT22;5065;46.942;7.432;2023-08-12T13:48:35;30.50;99.90
10051;DHT22;5065;46.942;7.432;2023-08-12T13:51:03;30.50;99.90
10051;DHT22;5065;46.942;7.432;2023-08-12T13:53:33;30.50;99.90
10051;DHT22;5065;46.942;7.432;2023-08-12T13:56:00;30.40;99.90
10051;DHT22;5065;46.942;7.432;2023-08-12T13:58:27;30.40;99.90
10051;DHT22;5065;46.942;7.432;2023-08-12T14:00:54;30.30;99.90
10051;DHT22;5065;46.942;7.432;2023-08-12T14:03:23;30.30;99.90
10051;DHT22;5065;46.942;7.432;2023-08-12T14:05:50;30.20;99.90
10051;DHT22;5065;46.942;7.432;2023-08-12T14:08:17;30.20;99.90
10051;DHT22;5065;46.942;7.432;2023-08-12T14:10:45;30.30;99.90
10051;DHT22;5065;46.942;7.432;2023-08-12T14:13:13;30.30;99.90
10051;DHT22;5065;46.942;7.432;2023-08-12T14:15:40;30.40;99.90
10051;DHT22;5065;46.942;7.432;2023-08-12T14:18:07;30.40;99.90
10051;DHT22;5065;46.942;7.432;2023-08-12T14:20:36;30.30;99.90
10051;DHT22;5065;46.942;7.432;2023-08-12T14:23:03;30.30;99.90
10051;DHT22;5065;46.942;7.432;2023-08-12T14:25:31;30.30;99.90
10051;DHT22;5065;46.942;7.432;2023-08-12T14:27:58;30.30;99.90
10051;DHT22;5065;46.942;7.432;2023-08-12T14:30:25;30.20;99.90
10051;DHT22;5065;46.942;7.432;2023-08-12T14:32:53;30.30;99.90
10051;DHT22;5065;46.942;7.432;2023-08-12T14:35:20;30.40;99.90
10051;DHT22;5065;46.942;7.432;2023-08-12T14:37:49;30.40;99.90
10051;DHT22;5065;46.942;7.432;2023-08-12T14:40:16;30.40;99.90
10051;DHT22;5065;46.942;7.432;2023-08-12T14:42:43;30.40;99.90
10051;DHT22;5065;46.942;7.432;2023-08-12T14:45:10;30.40;99.90
10051;DHT22;5065;46.942;7.432;2023-08-12T14:47:38;30.40;99.90
10051;DHT22;5065;46.942;7.432;2023-08-12T14:50:06;30.30;99.90
10051;DHT22;5065;46.942;7.432;2023-08-12T14:52:34;30.20;99.90
10051;DHT22;5065;46.942;7.432;2023-08-12T14:55:03;30.20;99.90
10051;DHT22;5065;46.942;7.432;2023-08-12T14:57:30;30.20;99.90
10051;DHT22;5065;46.942;7.432;2023-08-12T14:59:57;30.20;99.90
10051;DHT22;5065;46.942;7.432;2023-08-12T15:02:42;30.10;99.90
10051;DHT22;5065;46.942;7.432;2023-08-12T15:05:09;30.20;99.90
10051;DHT22;5065;46.942;7.432;2023-08-12T15:07:38;30.10;99.90
10051;DHT22;5065;46.942;7.432;2023-08-12T15:10:05;30.00;99.90
10051;DHT22;5065;46.942;7.432;2023-08-12T15:12:34;30.10;99.90
10051;DHT22;5065;46.942;7.432;2023-08-12T15:15:01;30.00;99.90
10051;DHT22;5065;46.942;7.432;2023-08-12T15:17:28;30.00;99.90
10051;DHT22;5065;46.942;7.432;2023-08-12T15:19:57;30.00;99.90
10051;DHT22;5065;46.942;7.432;2023-08-12T15:22:24;30.00;99.90
10051;DHT22;5065;46.942;7.432;2023-08-12T15:24:51;30.00;99.90
10051;DHT22;5065;46.942;7.432;2023-08-12T15:27:18;30.10;99.90
10051;DHT22;5065;46.942;7.432;2023-08-12T15:29:46;30.20;99.90
10051;DHT22;5065;46.942;7.432;2023-08-12T15:32:13;30.20;99.90
10051;DHT22;5065;46.942;7.432;2023-08-12T15:34:40;30.30;99.90
10051;DHT22;5065;46.942;7.432;2023-08-12T15:37:08;30.30;99.90
10051;DHT22;5065;46.942;7.432;2023-08-12T15:39:35;30.30;99.90
10051;DHT22;5065;46.942;7.432;2023-08-12T15:42:03;30.30;99.90
10051;DHT22;5065;46.942;7.432;2023-08-12T15:44:30;30.20;99.90
10051;DHT22;5065;46.942;7.432;2023-08-12T15:46:57;30.20;99.90
10051;DHT22;5065;46.942;7.432;2023-08-12T15:49:25;30.20;99.90
10051;DHT22;5065;46.942;7.432;2023-08-12T15:51:52;30.20;99.90